Time;durP1;ratioP1;P1;durP2;ratioP2;P2;SDS_P1;SDS_P2;PMS_P1;PMS_P2;Temp;Humidity;BMP_temperature;BMP_pressure;BME280_temperature;BME280_humidity;BME280_pressure;Samples;Min_cycle;Max_cycle;Signal;HPM_P1;HPM_P2
2022/04/24 00:01:09;;;;;;;;;;;;;;;;;;5060833;28;1963;-67
2022/04/24 00:03:35;;;;;;;;;;;;;;;;;;5062061;28;1426;-67
2022/04/24 00:06:00;;;;;;;;;;;;;;;;;;5061355;28;1263;-67
2022/04/24 00:08:25;;;;;;;;;;;;;;;;;;5059949;28;1361;-67
2022/04/24 00:10:50;;;;;;;;;;;;;;;;;;5060128;28;1482;-67
2022/04/24 00:13:16;;;;;;;;;;;;;;;;;;5061539;28;1235;-67
2022/04/24 00:15:41;;;;;;;;;;;;;;;;;;5060852;28;1456;-67
2022/04/24 00:18:06;;;;;;;;;;;;;;;;;;5061582;28;1354;-67
2022/04/24 00:20:31;;;;;;;;;;;;;;;;;;5061482;28;1313;-67
2022/04/24 00:22:56;;;;;;;;;;;;;;;;;;5060730;28;1956;-67
2022/04/24 00:25:22;;;;;;;;;;;;;;;;;;5061732;28;1250;-67
2022/04/24 00:27:47;;;;;;;;;;;;;;;;;;5061509;28;1282;-66
2022/04/24 00:30:12;;;;;;;;;;;;;;;;;;5060278;28;1404;-67
2022/04/24 00:32:37;;;;;;;;;;;;;;;;;;5060724;28;1175;-67
2022/04/24 00:35:03;;;;;;;;;;;;;;;;;;5061513;28;1337;-67
2022/04/24 00:37:29;;;;;;;;;;;;;;;;;;5060604;28;1455;-67
2022/04/24 00:39:54;;;;;;;;;;;;;;;;;;5062453;28;1190;-67
2022/04/24 00:42:20;;;;;;;;;;;;;;;;;;5061237;28;1959;-66
2022/04/24 00:44:45;;;;;;;;;;;;;;;;;;5061534;28;1259;-67
2022/04/24 00:47:13;;;;;;;;;;;;;;;;;;5060203;28;1415;-66
2022/04/24 00:49:39;;;;;;;;;;;;;;;;;;5060839;28;1288;-66
2022/04/24 00:52:05;;;;;;;;;;;;;;;;;;5060042;28;1372;-67
2022/04/24 00:54:30;;;;;;;;;;;;;;;;;;5059928;28;1445;-67
2022/04/24 00:56:55;;;;;;;;;;;;;;;;;;5061426;28;1247;-67
2022/04/24 00:59:20;;;;;;;;;;;;;;;;;;5060283;28;1338;-67
2022/04/24 01:01:46;;;;;;;;;;;;;;;;;;5061312;28;1945;-67
2022/04/24 01:04:12;;;;;;;;;;;;;;;;;;5057435;28;1412;-67
2022/04/24 01:06:39;;;;;;;;;;;;;;;;;;5061001;28;1250;-66
2022/04/24 01:09:14;;;;;;;;;;;;;;;;;;5059011;28;1359;-67
2022/04/24 01:11:40;;;;;;;;;;;;;;;;;;5060964;28;1236;-67
2022/04/24 01:14:06;;;;;;;;;;;;;;;;;;5060278;28;1599;-67
2022/04/24 01:16:31;;;;;;;;;;;;;;;;;;5060848;28;1430;-67
2022/04/24 01:18:57;;;;;;;;;;;;;;;;;;5057579;28;1469;-66
2022/04/24 01:21:22;;;;;;;;;;;;;;;;;;5061078;28;1957;-66
2022/04/24 01:23:47;;;;;;;;;;;;;;;;;;5060042;28;1360;-67
2022/04/24 01:26:12;;;;;;;;;;;;;;;;;;5060347;28;1389;-66
2022/04/24 01:28:38;;;;;;;;;;;;;;;;;;5060492;28;1357;-66
2022/04/24 01:31:03;;;;;;;;;;;;;;;;;;5059706;28;1446;-66
2022/04/24 01:33:28;;;;;;;;;;;;;;;;;;5074695;28;1358;-67
2022/04/24 01:35:54;;;;;;;;;;;;;;;;;;5060323;28;1412;-67
2022/04/24 01:38:19;;;;;;;;;;;;;;;;;;5060234;28;1259;-67
2022/04/24 01:40:44;;;;;;;;;;;;;;;;;;5060067;28;1408;-68
2022/04/24 01:43:09;;;;;;;;;;;;;;;;;;5060412;28;1955;-68
2022/04/24 01:45:35;;;;;;;;;;;;;;;;;;5063429;28;1298;-68
2022/04/24 01:48:00;;;;;;;;;;;;;;;;;;5061560;28;1422;-67
2022/04/24 01:50:25;;;;;;;;;;;;;;;;;;5063777;28;1301;-68
2022/04/24 01:52:50;;;;;;;;;;;;;;;;;;5063214;28;1368;-68
2022/04/24 01:55:15;;;;;;;;;;;;;;;;;;5062939;28;1371;-68
2022/04/24 01:57:41;;;;;;;;;;;;;;;;;;5062321;28;1320;-67
2022/04/24 02:00:06;;;;;;;;;;;;;;;;;;5064460;28;1147;-67
2022/04/24 02:02:31;;;;;;;;;;;;;;;;;;5063900;28;1906;-68
2022/04/24 02:04:57;;;;;;;;;;;;;;;;;;5063915;28;1262;-68
2022/04/24 02:07:22;;;;;;;;;;;;;;;;;;5063860;28;1317;-67
2022/04/24 02:09:47;;;;;;;;;;;;;;;;;;5062734;28;1392;-67
2022/04/24 02:12:12;;;;;;;;;;;;;;;;;;5063947;28;1357;-68
2022/04/24 02:14:37;;;;;;;;;;;;;;;;;;5063772;28;1138;-67
2022/04/24 02:17:03;;;;;;;;;;;;;;;;;;5062883;28;1446;-67
2022/04/24 02:19:28;;;;;;;;;;;;;;;;;;5063385;28;1334;-68
2022/04/24 02:21:53;;;;;;;;;;;;;;;;;;5063636;28;1964;-68
2022/04/24 02:24:18;;;;;;;;;;;;;;;;;;5063485;28;1267;-67
2022/04/24 02:26:43;;;;;;;;;;;;;;;;;;5061773;28;1413;-68
2022/04/24 02:29:09;;;;;;;;;;;;;;;;;;5062515;28;1372;-68
2022/04/24 02:31:34;;;;;;;;;;;;;;;;;;5063465;28;1191;-67
2022/04/24 02:33:59;;;;;;;;;;;;;;;;;;5063437;28;1310;-67
2022/04/24 02:36:24;;;;;;;;;;;;;;;;;;5063663;28;1195;-68
2022/04/24 02:38:50;;;;;;;;;;;;;;;;;;5063278;28;1256;-67
2022/04/24 02:41:15;;;;;;;;;;;;;;;;;;5062336;28;1961;-68
2022/04/24 02:43:40;;;;;;;;;;;;;;;;;;5062642;28;1326;-67
2022/04/24 02:46:05;;;;;;;;;;;;;;;;;;5061734;28;1397;-68
2022/04/24 02:48:30;;;;;;;;;;;;;;;;;;5062983;28;1263;-67
2022/04/24 02:50:57;;;;;;;;;;;;;;;;;;5063221;28;1246;-68
2022/04/24 02:53:22;;;;;;;;;;;;;;;;;;5062076;28;1410;-68
2022/04/24 02:55:48;;;;;;;;;;;;;;;;;;5061063;28;1360;-68
2022/04/24 02:58:13;;;;;;;;;;;;;;;;;;5061628;28;1489;-68
2022/04/24 03:00:49;;;;;;;;;;;;;;;;;;5063089;28;1168;-68
2022/04/24 03:03:16;;;;;;;;;;;;;;;;;;5061689;28;1890;-68
2022/04/24 03:05:41;;;;;;;;;;;;;;;;;;5062916;28;1263;-67
2022/04/24 03:08:07;;;;;;;;;;;;;;;;;;5062484;28;1318;-68
2022/04/24 03:10:32;;;;;;;;;;;;;;;;;;5062168;28;1348;-68
2022/04/24 03:12:57;;;;;;;;;;;;;;;;;;5061466;28;1372;-68
2022/04/24 03:15:23;;;;;;;;;;;;;;;;;;5062680;28;1393;-67
2022/04/24 03:17:49;;;;;;;;;;;;;;;;;;5062424;28;1349;-68
2022/04/24 03:20:15;;;;;;;;;;;;;;;;;;5061562;28;1133;-68
2022/04/24 03:22:40;;;;;;;;;;;;;;;;;;5062397;28;1963;-68
2022/04/24 03:25:06;;;;;;;;;;;;;;;;;;5061728;28;1411;-68
2022/04/24 03:27:31;;;;;;;;;;;;;;;;;;5062052;28;1294;-67
2022/04/24 03:29:57;;;;;;;;;;;;;;;;;;5061411;28;1379;-67
2022/04/24 03:32:22;;;;;;;;;;;;;;;;;;5062141;28;1262;-68
2022/04/24 03:34:47;;;;;;;;;;;;;;;;;;5062777;28;1283;-68
2022/04/24 03:37:13;;;;;;;;;;;;;;;;;;5077748;28;1295;-68
2022/04/24 03:39:38;;;;;;;;;;;;;;;;;;5060956;28;1506;-68
2022/04/24 03:42:04;;;;;;;;;;;;;;;;;;5062339;28;1961;-68
2022/04/24 03:44:29;;;;;;;;;;;;;;;;;;5062143;28;1214;-68
2022/04/24 03:46:54;;;;;;;;;;;;;;;;;;5060534;28;1444;-68
2022/04/24 03:49:20;;;;;;;;;;;;;;;;;;5061646;28;1249;-68
2022/04/24 03:51:45;;;;;;;;;;;;;;;;;;5062777;28;1305;-68
2022/04/24 03:54:10;;;;;;;;;;;;;;;;;;5061479;28;1411;-68
2022/04/24 03:56:35;;;;;;;;;;;;;;;;;;5060963;28;1309;-67
2022/04/24 03:59:01;;;;;;;;;;;;;;;;;;5061630;28;1343;-68
2022/04/24 04:01:26;;;;;;;;;;;;;;;;;;5060793;28;1973;-68
2022/04/24 04:03:51;;;;;;;;;;;;;;;;;;5062701;28;1299;-68
2022/04/24 04:06:17;;;;;;;;;;;;;;;;;;5061895;28;1259;-68
2022/04/24 04:08:42;;;;;;;;;;;;;;;;;;5061578;28;1364;-67
2022/04/24 04:11:07;;;;;;;;;;;;;;;;;;5060706;28;1339;-68
2022/04/24 04:13:33;;;;;;;;;;;;;;;;;;5061931;28;1144;-68
2022/04/24 04:15:58;;;;;;;;;;;;;;;;;;5060962;28;1435;-68
2022/04/24 04:18:23;;;;;;;;;;;;;;;;;;5060551;28;1442;-68
2022/04/24 04:20:49;;;;;;;;;;;;;;;;;;5061581;28;1393;-68
2022/04/24 04:23:14;;;;;;;;;;;;;;;;;;5060619;28;1906;-68
2022/04/24 04:25:39;;;;;;;;;;;;;;;;;;5061113;28;1383;-68
2022/04/24 04:28:04;;;;;;;;;;;;;;;;;;5060203;28;1378;-68
2022/04/24 04:30:29;;;;;;;;;;;;;;;;;;5061555;28;1193;-68
2022/04/24 04:32:55;;;;;;;;;;;;;;;;;;5060936;28;1372;-68
2022/04/24 04:35:23;;;;;;;;;;;;;;;;;;5061573;28;1258;-68
2022/04/24 04:37:49;;;;;;;;;;;;;;;;;;5060701;28;1385;-68
2022/04/24 04:40:14;;;;;;;;;;;;;;;;;;5060426;28;1126;-68
2022/04/24 04:42:40;;;;;;;;;;;;;;;;;;5060516;28;1901;-68
2022/04/24 04:45:06;;;;;;;;;;;;;;;;;;5060978;28;1320;-68
2022/04/24 04:47:31;;;;;;;;;;;;;;;;;;5059700;28;1377;-67
2022/04/24 04:49:56;;;;;;;;;;;;;;;;;;5061402;28;1325;-68
2022/04/24 04:52:22;;;;;;;;;;;;;;;;;;5060942;28;1263;-68
2022/04/24 04:54:47;;;;;;;;;;;;;;;;;;5061593;28;1263;-68
2022/04/24 04:57:12;;;;;;;;;;;;;;;;;;5060791;28;1475;-68
2022/04/24 04:59:37;;;;;;;;;;;;;;;;;;5060117;28;1317;-67
2022/04/24 05:02:03;;;;;;;;;;;;;;;;;;5060709;28;1906;-67
2022/04/24 05:04:28;;;;;;;;;;;;;;;;;;5060410;28;1515;-67
2022/04/24 05:06:53;;;;;;;;;;;;;;;;;;5061115;28;1337;-67
2022/04/24 05:09:18;;;;;;;;;;;;;;;;;;5060636;28;1329;-68
2022/04/24 05:11:44;;;;;;;;;;;;;;;;;;5060323;28;1428;-68
2022/04/24 05:14:09;;;;;;;;;;;;;;;;;;5059537;28;1360;-68
2022/04/24 05:16:34;;;;;;;;;;;;;;;;;;5060570;28;1314;-68
2022/04/24 05:18:59;;;;;;;;;;;;;;;;;;5060158;28;1271;-68
2022/04/24 05:21:25;;;;;;;;;;;;;;;;;;5059541;28;1903;-68
2022/04/24 05:23:52;;;;;;;;;;;;;;;;;;5059520;28;1258;-68
2022/04/24 05:26:17;;;;;;;;;;;;;;;;;;5061009;28;1143;-68
2022/04/24 05:28:42;;;;;;;;;;;;;;;;;;5059547;28;1368;-67
2022/04/24 05:31:07;;;;;;;;;;;;;;;;;;5060309;28;1278;-68
2022/04/24 05:33:32;;;;;;;;;;;;;;;;;;5060925;28;1412;-68
2022/04/24 05:35:58;;;;;;;;;;;;;;;;;;5060069;28;1384;-68
2022/04/24 05:38:23;;;;;;;;;;;;;;;;;;5059050;28;1432;-68
2022/04/24 05:40:48;;;;;;;;;;;;;;;;;;5058958;28;1290;-67
2022/04/24 05:43:13;;;;;;;;;;;;;;;;;;5060226;28;1886;-68
2022/04/24 05:45:38;;;;;;;;;;;;;;;;;;5057744;28;1306;-68
2022/04/24 05:48:04;;;;;;;;;;;;;;;;;;5058471;28;1397;-67
2022/04/24 05:50:29;;;;;;;;;;;;;;;;;;5059376;28;1372;-68
2022/04/24 05:52:55;;;;;;;;;;;;;;;;;;5060186;28;1321;-67
2022/04/24 05:55:20;;;;;;;;;;;;;;;;;;5059895;28;1185;-68
2022/04/24 05:57:49;;;;;;;;;;;;;;;;;;5056894;28;1575;-68
2022/04/24 06:00:16;;;;;;;;;;;;;;;;;;5059070;28;1172;-68
2022/04/24 06:02:41;;;;;;;;;;;;;;;;;;5059764;28;1893;-68
2022/04/24 06:05:07;;;;;;;;;;;;;;;;;;5058854;28;1410;-67
2022/04/24 06:07:32;;;;;;;;;;;;;;;;;;5059743;28;1263;-68
2022/04/24 06:09:57;;;;;;;;;;;;;;;;;;5058948;28;1439;-68
2022/04/24 06:12:22;;;;;;;;;;;;;;;;;;5059610;28;1259;-68
2022/04/24 06:14:48;;;;;;;;;;;;;;;;;;5060820;28;1217;-67
2022/04/24 06:17:13;;;;;;;;;;;;;;;;;;5060572;28;1136;-68
2022/04/24 06:19:38;;;;;;;;;;;;;;;;;;5059030;28;1473;-67
2022/04/24 06:22:04;;;;;;;;;;;;;;;;;;5060042;28;1937;-68
2022/04/24 06:24:29;;;;;;;;;;;;;;;;;;5059218;28;1388;-67
2022/04/24 06:26:54;;;;;;;;;;;;;;;;;;5058662;28;1210;-68
2022/04/24 06:29:20;;;;;;;;;;;;;;;;;;5058223;28;1376;-68
2022/04/24 06:31:45;;;;;;;;;;;;;;;;;;5062176;28;1313;-68
2022/04/24 06:34:13;;;;;;;;;;;;;;;;;;5062887;28;1372;-68
2022/04/24 06:36:38;;;;;;;;;;;;;;;;;;5063275;28;1297;-68
2022/04/24 06:39:03;;;;;;;;;;;;;;;;;;5063021;28;1401;-67
2022/04/24 06:41:29;;;;;;;;;;;;;;;;;;5062074;28;1886;-68
2022/04/24 06:43:54;;;;;;;;;;;;;;;;;;5061990;28;1077;-68
2022/04/24 06:46:20;;;;;;;;;;;;;;;;;;5063031;28;1255;-68
2022/04/24 06:48:45;;;;;;;;;;;;;;;;;;5061907;28;1259;-67
2022/04/24 06:51:10;;;;;;;;;;;;;;;;;;5063473;28;1325;-68
2022/04/24 06:53:38;;;;;;;;;;;;;;;;;;5061776;28;1467;-68
2022/04/24 06:56:03;;;;;;;;;;;;;;;;;;5062990;28;1259;-68
2022/04/24 06:58:28;;;;;;;;;;;;;;;;;;5060613;28;1348;-68
2022/04/24 07:00:54;;;;;;;;;;;;;;;;;;5063076;28;1358;-67
2022/04/24 07:03:22;;;;;;;;;;;;;;;;;;5062509;28;1898;-67
2022/04/24 07:05:48;;;;;;;;;;;;;;;;;;5062652;28;1255;-68
2022/04/24 07:08:13;;;;;;;;;;;;;;;;;;5061226;28;1483;-68
2022/04/24 07:10:39;;;;;;;;;;;;;;;;;;5062554;28;1077;-68
2022/04/24 07:13:05;;;;;;;;;;;;;;;;;;5060059;28;1424;-68
2022/04/24 07:15:31;;;;;;;;;;;;;;;;;;5062623;28;1163;-68
2022/04/24 07:17:56;;;;;;;;;;;;;;;;;;5061228;28;1275;-68
2022/04/24 07:20:21;;;;;;;;;;;;;;;;;;5061470;28;1399;-67
2022/04/24 07:23:05;;;;;;;;;;;;;;;;;;5061512;28;1964;-68
2022/04/24 07:25:43;;;;;;;;;;;;;;;;;;5062455;28;1164;-68
2022/04/24 07:28:08;;;;;;;;;;;;;;;;;;5060460;28;1321;-68
2022/04/24 07:30:33;;;;;;;;;;;;;;;;;;5061932;28;1417;-68
2022/04/24 07:32:59;;;;;;;;;;;;;;;;;;5062422;28;1338;-68
2022/04/24 07:35:26;;;;;;;;;;;;;;;;;;5060813;28;1720;-67
2022/04/24 07:37:51;;;;;;;;;;;;;;;;;;5060973;28;1396;-68
2022/04/24 07:40:17;;;;;;;;;;;;;;;;;;5061454;28;1388;-68
2022/04/24 07:42:47;;;;;;;;;;;;;;;;;;5060832;28;1913;-67
2022/04/24 07:45:24;;;;;;;;;;;;;;;;;;5061165;28;1387;-68
2022/04/24 07:47:50;;;;;;;;;;;;;;;;;;5060240;28;1530;-67
2022/04/24 07:50:16;;;;;;;;;;;;;;;;;;5062149;28;1247;-67
2022/04/24 07:52:41;;;;;;;;;;;;;;;;;;5061909;28;1380;-68
2022/04/24 07:55:07;;;;;;;;;;;;;;;;;;5061244;28;1439;-65
2022/04/24 07:57:32;;;;;;;;;;;;;;;;;;5061618;28;1341;-66
2022/04/24 07:59:57;;;;;;;;;;;;;;;;;;5061637;28;1375;-66
2022/04/24 08:02:23;;;;;;;;;;;;;;;;;;5061426;28;1965;-66
2022/04/24 08:04:48;;;;;;;;;;;;;;;;;;5061302;28;1423;-67
2022/04/24 08:07:15;;;;;;;;;;;;;;;;;;5061897;28;1425;-67
2022/04/24 08:09:41;;;;;;;;;;;;;;;;;;5060106;28;1323;-67
2022/04/24 08:12:07;;;;;;;;;;;;;;;;;;5061469;28;1255;-67
2022/04/24 08:14:32;;;;;;;;;;;;;;;;;;5061393;28;1255;-67
2022/04/24 08:16:57;;;;;;;;;;;;;;;;;;5061703;28;1329;-67
2022/04/24 08:19:22;;;;;;;;;;;;;;;;;;5060665;28;1356;-67
2022/04/24 08:21:47;;;;;;;;;;;;;;;;;;5060925;28;1964;-67
2022/04/24 08:24:13;;;;;;;;;;;;;;;;;;5058443;28;1384;-67
2022/04/24 08:26:38;;;;;;;;;;;;;;;;;;5060415;28;1341;-67
2022/04/24 08:29:03;;;;;;;;;;;;;;;;;;5060635;28;1299;-68
2022/04/24 08:31:28;;;;;;;;;;;;;;;;;;5060900;28;1274;-63
2022/04/24 08:33:57;;;;;;;;;;;;;;;;;;5060153;28;1368;-63
2022/04/24 08:36:22;;;;;;;;;;;;;;;;;;5058475;28;1378;-62
2022/04/24 08:38:47;;;;;;;;;;;;;;;;;;5059412;28;1482;-63
2022/04/24 08:41:13;;;;;;;;;;;;;;;;;;5060304;28;1254;-63
2022/04/24 08:43:38;;;;;;;;;;;;;;;;;;5058735;28;1874;-62
2022/04/24 08:46:04;;;;;;;;;;;;;;;;;;5060727;28;1247;-63
2022/04/24 08:48:29;;;;;;;;;;;;;;;;;;5060429;28;1267;-62
2022/04/24 08:50:58;;;;;;;;;;;;;;;;;;5060942;28;1245;-62
2022/04/24 08:53:26;;;;;;;;;;;;;;;;;;5059603;28;1349;-62
2022/04/24 08:55:52;;;;;;;;;;;;;;;;;;5060087;28;1377;-63
2022/04/24 08:58:17;;;;;;;;;;;;;;;;;;5060139;28;1337;-63
2022/04/24 09:00:43;;;;;;;;;;;;;;;;;;5060923;28;1270;-63
2022/04/24 09:03:09;;;;;;;;;;;;;;;;;;5060659;28;1898;-64
2022/04/24 09:05:34;;;;;;;;;;;;;;;;;;5059110;28;1204;-64
2022/04/24 09:08:09;;;;;;;;;;;;;;;;;;5058664;28;1561;-64
2022/04/24 09:10:47;;;;;;;;;;;;;;;;;;5060021;28;1401;-63
2022/04/24 09:13:12;;;;;;;;;;;;;;;;;;5059237;28;1290;-63
2022/04/24 09:15:37;;;;;;;;;;;;;;;;;;5076021;28;1646;-63
2022/04/24 09:18:02;;;;;;;;;;;;;;;;;;5060073;28;1411;-63
2022/04/24 09:20:31;;;;;;;;;;;;;;;;;;5059809;28;1302;-63
2022/04/24 09:23:01;;;;;;;;;;;;;;;;;;5059210;28;1910;-63
2022/04/24 09:25:39;;;;;;;;;;;;;;;;;;5060004;28;1322;-63
2022/04/24 09:28:04;;;;;;;;;;;;;;;;;;5060326;28;1254;-63
2022/04/24 09:30:35;;;;;;;;;;;;;;;;;;5059536;28;1223;-63
2022/04/24 09:33:01;;;;;;;;;;;;;;;;;;5060402;28;1310;-62
2022/04/24 09:35:30;;;;;;;;;;;;;;;;;;5059757;28;1356;-63
2022/04/24 09:38:17;;;;;;;;;;;;;;;;;;5073221;28;1341;-63
2022/04/24 09:40:46;;;;;;;;;;;;;;;;;;5060231;28;1247;-63
2022/04/24 09:43:11;;;;;;;;;;;;;;;;;;5059553;28;1886;-63
2022/04/24 09:45:38;;;;;;;;;;;;;;;;;;5060431;28;1326;-63
2022/04/24 09:48:13;;;;;;;;;;;;;;;;;;5059057;28;1543;-63
2022/04/24 09:50:38;;;;;;;;;;;;;;;;;;5057749;28;1382;-63
2022/04/24 09:53:04;;;;;;;;;;;;;;;;;;5059953;28;1436;-63
2022/04/24 09:55:29;;;;;;;;;;;;;;;;;;5059617;28;1429;-64
2022/04/24 09:57:55;;;;;;;;;;;;;;;;;;5056826;28;1432;-64
2022/04/24 10:00:21;;;;;;;;;;;;;;;;;;5059699;28;1330;-65
2022/04/24 10:02:47;;;;;;;;;;;;;;;;;;5058724;28;1895;-65
2022/04/24 10:05:14;;;;;;;;;;;;;;;;;;5058602;28;1330;-65
2022/04/24 10:07:39;;;;;;;;;;;;;;;;;;5063159;28;1536;-65
2022/04/24 10:10:07;;;;;;;;;;;;;;;;;;5063091;28;1443;-65
2022/04/24 10:12:33;;;;;;;;;;;;;;;;;;5065148;28;1289;-66
2022/04/24 10:15:00;;;;;;;;;;;;;;;;;;5063081;28;1301;-66
2022/04/24 10:17:44;;;;;;;;;;;;;;;;;;5062797;28;1263;-66
2022/04/24 10:20:32;;;;;;;;;;;;;;;;;;5062175;28;1432;-66
2022/04/24 10:22:58;;;;;;;;;;;;;;;;;;5063180;28;1960;-66
2022/04/24 10:25:29;;;;;;;;;;;;;;;;;;5063270;28;1369;-66
2022/04/24 10:27:55;;;;;;;;;;;;;;;;;;5061509;28;1337;-66
2022/04/24 10:30:24;;;;;;;;;;;;;;;;;;5063136;28;1180;-66
2022/04/24 10:33:19;;;;;;;;;;;;;;;;;;5062048;28;1392;-67
2022/04/24 10:35:45;;;;;;;;;;;;;;;;;;5055909;28;1319;-67
2022/04/24 10:38:10;;;;;;;;;;;;;;;;;;5062145;28;1275;-67
2022/04/24 10:40:35;;;;;;;;;;;;;;;;;;5063108;28;1236;-67
2022/04/24 10:43:04;;;;;;;;;;;;;;;;;;5062396;28;1972;-67
2022/04/24 10:45:32;;;;;;;;;;;;;;;;;;5063098;28;1207;-67
2022/04/24 10:48:03;;;;;;;;;;;;;;;;;;5062793;28;1306;-67
2022/04/24 10:50:28;;;;;;;;;;;;;;;;;;5063509;28;1299;-67
2022/04/24 10:52:55;;;;;;;;;;;;;;;;;;5062958;28;1374;-66
2022/04/24 10:55:29;;;;;;;;;;;;;;;;;;5062031;28;1330;-66
2022/04/24 10:57:59;;;;;;;;;;;;;;;;;;5062406;28;1450;-66
2022/04/24 11:00:28;;;;;;;;;;;;;;;;;;5061897;28;1582;-66
2022/04/24 11:03:03;;;;;;;;;;;;;;;;;;5062640;28;1898;-66
2022/04/24 11:05:35;;;;;;;;;;;;;;;;;;5061607;28;1242;-66
2022/04/24 11:08:04;;;;;;;;;;;;;;;;;;5061242;28;1501;-67
2022/04/24 11:10:30;;;;;;;;;;;;;;;;;;5061225;28;1306;-67
2022/04/24 11:12:56;;;;;;;;;;;;;;;;;;5061728;28;1250;-67
2022/04/24 11:15:21;;;;;;;;;;;;;;;;;;5062440;28;1274;-66
2022/04/24 11:17:47;;;;;;;;;;;;;;;;;;5061829;28;1326;-65
2022/04/24 11:20:14;;;;;;;;;;;;;;;;;;5062041;28;1284;-65
2022/04/24 11:22:48;;;;;;;;;;;;;;;;;;5062617;28;1902;-64
2022/04/24 11:25:14;;;;;;;;;;;;;;;;;;5061637;28;1265;-64
2022/04/24 11:27:40;;;;;;;;;;;;;;;;;;5062325;28;1326;-64
2022/04/24 11:30:15;;;;;;;;;;;;;;;;;;5061733;28;1262;-65
2022/04/24 11:32:40;;;;;;;;;;;;;;;;;;5060496;28;1266;-65
2022/04/24 11:35:09;;;;;;;;;;;;;;;;;;5062496;28;1320;-65
2022/04/24 11:37:34;;;;;;;;;;;;;;;;;;5059273;28;1265;-65
2022/04/24 11:40:00;;;;;;;;;;;;;;;;;;5062285;28;1339;-65
2022/04/24 11:42:25;;;;;;;;;;;;;;;;;;5062369;28;1965;-66
2022/04/24 11:50:18;;;;;;;;;;;;;;;;;;5062241;28;1272;-66
2022/04/24 11:52:47;;;;;;;;;;;;;;;;;;5062028;28;1350;-66
2022/04/24 11:55:22;;;;;;;;;;;;;;;;;;5061783;28;1258;-66
2022/04/24 11:57:58;;;;;;;;;;;;;;;;;;5056686;28;1327;-66
2022/04/24 12:00:36;;;;;;;;;;;;;;;;;;5060950;28;1305;-65
2022/04/24 12:03:02;;;;;;;;;;;;;;;;;;5061075;28;1897;-65
2022/04/24 12:05:28;;;;;;;;;;;;;;;;;;5062058;28;1235;-65
2022/04/24 12:07:55;;;;;;;;;;;;;;;;;;5061010;28;1377;-66
2022/04/24 12:10:22;;;;;;;;;;;;;;;;;;5061887;28;1279;-66
2022/04/24 12:12:48;;;;;;;;;;;;;;;;;;5062171;28;1227;-66
2022/04/24 12:15:17;;;;;;;;;;;;;;;;;;5061530;28;1259;-66
2022/04/24 12:17:55;;;;;;;;;;;;;;;;;;5061231;28;1275;-66
2022/04/24 12:20:21;;;;;;;;;;;;;;;;;;5060021;28;1251;-66
2022/04/24 12:22:47;;;;;;;;;;;;;;;;;;5059700;28;1894;-65
2022/04/24 12:25:17;;;;;;;;;;;;;;;;;;5060919;28;1349;-65
2022/04/24 12:27:52;;;;;;;;;;;;;;;;;;5060105;28;1596;-65
2022/04/24 12:30:18;;;;;;;;;;;;;;;;;;5060150;28;1395;-66
2022/04/24 12:32:43;;;;;;;;;;;;;;;;;;5061625;28;1263;-65
2022/04/24 12:35:24;;;;;;;;;;;;;;;;;;5061086;28;1266;-65
2022/04/24 12:37:49;;;;;;;;;;;;;;;;;;5060130;28;1291;-65
2022/04/24 12:40:14;;;;;;;;;;;;;;;;;;5060413;28;1475;-65
2022/04/24 12:42:49;;;;;;;;;;;;;;;;;;5060548;28;1957;-66
2022/04/24 12:45:14;;;;;;;;;;;;;;;;;;5059788;28;1243;-65
2022/04/24 12:47:40;;;;;;;;;;;;;;;;;;5060649;28;1399;-65
2022/04/24 12:50:05;;;;;;;;;;;;;;;;;;5060789;28;1714;-66
2022/04/24 12:52:30;;;;;;;;;;;;;;;;;;5058425;28;1251;-66
2022/04/24 12:54:55;;;;;;;;;;;;;;;;;;5060131;28;1301;-62
2022/04/24 12:57:21;;;;;;;;;;;;;;;;;;5060261;28;1258;-64
2022/04/24 12:59:46;;;;;;;;;;;;;;;;;;5060567;28;1251;-64
2022/04/24 13:02:12;;;;;;;;;;;;;;;;;;5061019;28;1898;-64
2022/04/24 13:04:39;;;;;;;;;;;;;;;;;;5060398;28;1289;-64
2022/04/24 13:07:04;;;;;;;;;;;;;;;;;;5059156;28;1234;-64
2022/04/24 13:09:30;;;;;;;;;;;;;;;;;;5060232;28;1627;-64
2022/04/24 13:11:55;;;;;;;;;;;;;;;;;;5059794;28;1250;-64
2022/04/24 13:14:21;;;;;;;;;;;;;;;;;;5059972;28;1388;-65
2022/04/24 13:19:30;;;;;;;;;;;;;;;;;;5060042;28;1398;-64
2022/04/24 13:21:55;;;;;;;;;;;;;;;;;;5059948;28;1963;-64
2022/04/24 13:24:20;;;;;;;;;;;;;;;;;;5060112;28;1305;-64
2022/04/24 13:26:46;;;;;;;;;;;;;;;;;;5060022;28;1246;-64
2022/04/24 13:29:11;;;;;;;;;;;;;;;;;;5058974;28;1378;-64
2022/04/24 13:31:36;;;;;;;;;;;;;;;;;;5060254;28;1290;-64
2022/04/24 13:34:01;;;;;;;;;;;;;;;;;;5060083;28;1310;-64
2022/04/24 13:36:26;;;;;;;;;;;;;;;;;;5059774;28;1254;-64
2022/04/24 13:38:52;;;;;;;;;;;;;;;;;;5074961;28;1464;-64
2022/04/24 13:41:17;;;;;;;;;;;;;;;;;;5062691;28;1215;-64
2022/04/24 13:43:43;;;;;;;;;;;;;;;;;;5063565;28;1963;-64
2022/04/24 13:46:09;;;;;;;;;;;;;;;;;;5062865;28;1243;-65
2022/04/24 13:48:35;;;;;;;;;;;;;;;;;;5063768;28;1337;-68
2022/04/24 13:51:00;;;;;;;;;;;;;;;;;;5067705;28;1302;-69
2022/04/24 13:53:26;;;;;;;;;;;;;;;;;;5063880;28;1306;-69
2022/04/24 13:55:52;;;;;;;;;;;;;;;;;;5063272;28;1200;-69
2022/04/24 13:58:17;;;;;;;;;;;;;;;;;;5063501;28;1305;-69
2022/04/24 14:00:44;;;;;;;;;;;;;;;;;;5063263;28;1326;-69
2022/04/24 14:03:09;;;;;;;;;;;;;;;;;;5062191;28;1894;-71
2022/04/24 14:05:35;;;;;;;;;;;;;;;;;;5063567;28;1239;-70
2022/04/24 14:08:00;;;;;;;;;;;;;;;;;;5062480;28;1326;-69
2022/04/24 14:10:26;;;;;;;;;;;;;;;;;;5062087;28;1679;-69
2022/04/24 14:12:51;;;;;;;;;;;;;;;;;;5063015;28;1289;-68
2022/04/24 14:15:25;;;;;;;;;;;;;;;;;;5062448;28;1330;-68
2022/04/24 14:17:52;;;;;;;;;;;;;;;;;;5061539;28;1383;-68
2022/04/24 14:20:17;;;;;;;;;;;;;;;;;;5061281;28;1242;-68
2022/04/24 14:22:42;;;;;;;;;;;;;;;;;;5063325;28;1977;-68
2022/04/24 14:25:08;;;;;;;;;;;;;;;;;;5062565;28;1365;-68
2022/04/24 14:27:33;;;;;;;;;;;;;;;;;;5062066;28;1378;-67
2022/04/24 14:29:59;;;;;;;;;;;;;;;;;;5062984;28;1333;-68
2022/04/24 14:32:25;;;;;;;;;;;;;;;;;;5062768;28;1671;-68
2022/04/24 14:34:51;;;;;;;;;;;;;;;;;;5062437;28;1278;-68
2022/04/24 14:37:16;;;;;;;;;;;;;;;;;;5061622;28;1353;-68
2022/04/24 14:39:42;;;;;;;;;;;;;;;;;;5062089;28;1758;-68
2022/04/24 14:42:07;;;;;;;;;;;;;;;;;;5061924;28;1906;-68
2022/04/24 14:44:33;;;;;;;;;;;;;;;;;;5063007;28;1358;-67
2022/04/24 14:55:44;;;;;;;;;;;;;;;;;;5057266;28;1290;-69
2022/04/24 14:58:10;;;;;;;;;;;;;;;;;;5062005;28;1263;-68
2022/04/24 15:00:36;;;;;;;;;;;;;;;;;;5061927;28;1368;-69
2022/04/24 15:03:03;;;;;;;;;;;;;;;;;;5062146;28;1965;-69
2022/04/24 15:05:29;;;;;;;;;;;;;;;;;;5062450;28;1187;-69
2022/04/24 15:07:54;;;;;;;;;;;;;;;;;;5060424;28;1348;-68
2022/04/24 15:10:19;;;;;;;;;;;;;;;;;;5061109;28;1240;-69
2022/04/24 15:12:45;;;;;;;;;;;;;;;;;;5062282;28;1357;-68
2022/04/24 15:15:11;;;;;;;;;;;;;;;;;;5061750;28;1306;-69
2022/04/24 15:17:37;;;;;;;;;;;;;;;;;;5060583;28;1373;-69
2022/04/24 15:20:02;;;;;;;;;;;;;;;;;;5060860;28;1282;-69
2022/04/24 15:22:27;;;;;;;;;;;;;;;;;;5061715;28;1975;-69
2022/04/24 15:24:52;;;;;;;;;;;;;;;;;;5062065;28;1311;-69
2022/04/24 15:27:18;;;;;;;;;;;;;;;;;;5061145;28;1333;-69
2022/04/24 15:29:43;;;;;;;;;;;;;;;;;;5062023;28;1397;-69
2022/04/24 15:32:08;;;;;;;;;;;;;;;;;;5061936;28;1274;-69
2022/04/24 15:34:34;;;;;;;;;;;;;;;;;;5061749;28;1255;-69
2022/04/24 15:36:59;;;;;;;;;;;;;;;;;;5061311;28;1189;-70
2022/04/24 15:39:25;;;;;;;;;;;;;;;;;;5060991;28;1370;-70
2022/04/24 15:41:50;;;;;;;;;;;;;;;;;;5061665;28;1897;-69
2022/04/24 15:44:16;;;;;;;;;;;;;;;;;;5060272;28;1360;-69
2022/04/24 15:46:41;;;;;;;;;;;;;;;;;;5060049;28;1274;-69
2022/04/24 15:49:06;;;;;;;;;;;;;;;;;;5061006;28;1349;-70
2022/04/24 15:51:32;;;;;;;;;;;;;;;;;;5059277;28;1400;-69
2022/04/24 15:53:57;;;;;;;;;;;;;;;;;;5060904;28;1346;-70
2022/04/24 15:56:22;;;;;;;;;;;;;;;;;;5060713;28;1306;-70
2022/04/24 15:58:47;;;;;;;;;;;;;;;;;;5060629;28;1326;-69
2022/04/24 16:01:14;;;;;;;;;;;;;;;;;;5060143;28;1282;-70
2022/04/24 16:03:39;;;;;;;;;;;;;;;;;;5060541;28;1977;-70
2022/04/24 16:06:05;;;;;;;;;;;;;;;;;;5061097;28;1259;-69
2022/04/24 16:08:31;;;;;;;;;;;;;;;;;;5060336;28;1341;-69
2022/04/24 16:10:56;;;;;;;;;;;;;;;;;;5061517;28;1321;-69
2022/04/24 16:13:21;;;;;;;;;;;;;;;;;;5062157;28;1277;-70
2022/04/24 16:15:47;;;;;;;;;;;;;;;;;;5061471;28;1341;-70
2022/04/24 16:18:12;;;;;;;;;;;;;;;;;;5058802;28;1271;-69
2022/04/24 16:20:38;;;;;;;;;;;;;;;;;;5061342;28;1360;-70
2022/04/24 16:23:03;;;;;;;;;;;;;;;;;;5061092;28;1905;-70
2022/04/24 16:25:28;;;;;;;;;;;;;;;;;;5059932;28;1274;-67
2022/04/24 16:27:53;;;;;;;;;;;;;;;;;;5060591;28;1340;-69
2022/04/24 16:30:19;;;;;;;;;;;;;;;;;;5061358;28;1267;-70
2022/04/24 16:32:46;;;;;;;;;;;;;;;;;;5059383;28;1266;-70
2022/04/24 16:35:11;;;;;;;;;;;;;;;;;;5059794;28;1267;-70
2022/04/24 16:37:38;;;;;;;;;;;;;;;;;;5060127;28;1318;-70
2022/04/24 16:40:04;;;;;;;;;;;;;;;;;;5061376;28;1449;-70
2022/04/24 16:42:30;;;;;;;;;;;;;;;;;;5060162;28;1885;-70
2022/04/24 16:44:55;;;;;;;;;;;;;;;;;;5060888;28;1325;-70
2022/04/24 16:47:20;;;;;;;;;;;;;;;;;;5058476;28;1361;-70
2022/04/24 16:49:45;;;;;;;;;;;;;;;;;;5061089;28;1317;-69
2022/04/24 17:00:23;;;;;;;;;;;;;;;;;;5059774;28;1329;-68
2022/04/24 17:02:49;;;;;;;;;;;;;;;;;;5059993;28;1914;-68
2022/04/24 17:05:14;;;;;;;;;;;;;;;;;;5058169;28;1206;-67
2022/04/24 17:07:40;;;;;;;;;;;;;;;;;;5058538;28;1348;-69
2022/04/24 17:10:05;;;;;;;;;;;;;;;;;;5058979;28;1351;-68
2022/04/24 17:12:33;;;;;;;;;;;;;;;;;;5059918;28;1232;-68
2022/04/24 17:14:59;;;;;;;;;;;;;;;;;;5059036;28;1432;-68
2022/04/24 17:17:25;;;;;;;;;;;;;;;;;;5059044;28;1251;-68
2022/04/24 17:19:50;;;;;;;;;;;;;;;;;;5057736;28;1640;-70
2022/04/24 17:22:15;;;;;;;;;;;;;;;;;;5059798;28;1893;-70